createdAt,value
2019-02-27T00:01:50.960Z,2.43
2019-02-27T00:04:19.139Z,2.47
2019-02-27T00:06:47.868Z,2.43
2019-02-27T00:09:15.272Z,2.70
2019-02-27T00:11:46.005Z,2.13
2019-02-27T00:14:11.546Z,2.47
2019-02-27T00:16:38.839Z,2.60
2019-02-27T00:19:06.390Z,2.53
2019-02-27T00:21:33.456Z,2.73
2019-02-27T00:24:00.866Z,2.77
2019-02-27T00:26:27.745Z,3.50
2019-02-27T00:28:56.165Z,2.40
2019-02-27T00:31:23.788Z,2.77
2019-02-27T00:33:51.053Z,2.73
2019-02-27T00:36:18.087Z,2.40
2019-02-27T00:38:45.078Z,2.60
2019-02-27T00:41:13.069Z,2.37
2019-02-27T00:43:40.644Z,2.30
2019-02-27T00:46:08.172Z,2.37
2019-02-27T00:48:35.204Z,2.40
2019-02-27T00:51:02.570Z,2.00
2019-02-27T00:53:29.724Z,2.70
2019-02-27T00:55:57.079Z,2.77
2019-02-27T00:58:27.022Z,2.27
2019-02-27T01:00:54.219Z,2.50
2019-02-27T01:03:21.364Z,2.50
2019-02-27T01:05:48.223Z,3.30
2019-02-27T01:08:15.444Z,2.70
2019-02-27T01:10:42.886Z,2.67
2019-02-27T01:13:11.532Z,3.70
2019-02-27T01:15:38.839Z,2.90
2019-02-27T01:18:06.375Z,3.50
2019-02-27T01:20:33.939Z,2.40
2019-02-27T01:23:01.052Z,3.27
2019-02-27T01:25:28.407Z,3.37
2019-02-27T01:27:55.491Z,2.87
2019-02-27T01:30:24.425Z,3.60
2019-02-27T01:32:51.939Z,3.10
2019-02-27T01:35:19.328Z,3.77
2019-02-27T01:37:46.363Z,16.07
2019-02-27T01:40:17.236Z,5.93
2019-02-27T01:42:43.003Z,3.30
2019-02-27T01:45:12.988Z,3.43
2019-02-27T01:47:40.192Z,3.10
2019-02-27T01:50:39.999Z,3.00
2019-02-27T01:53:08.173Z,3.37
2019-02-27T01:55:37.800Z,4.03
2019-02-27T01:58:09.153Z,3.13
2019-02-27T02:00:34.987Z,2.83
2019-02-27T02:03:03.659Z,3.47
2019-02-27T02:05:31.343Z,2.93
2019-02-27T02:07:58.934Z,3.20
2019-02-27T02:10:28.264Z,3.43
2019-02-27T02:13:15.293Z,2.67
2019-02-27T02:16:10.228Z,3.13
2019-02-27T04:22:00.472Z,2.77
2019-02-27T04:24:24.196Z,2.80
2019-02-27T04:26:51.199Z,2.20
2019-02-27T04:29:18.712Z,2.13
2019-02-27T04:31:45.724Z,2.30
2019-02-27T04:34:12.748Z,2.43
2019-02-27T04:36:39.884Z,1.77
2019-02-27T04:39:07.695Z,1.87
2019-02-27T04:41:34.792Z,1.90
2019-02-27T04:44:05.315Z,2.10
2019-02-27T04:46:31.251Z,2.40
2019-02-27T04:49:04.002Z,2.00
2019-02-27T04:51:29.164Z,2.37
2019-02-27T04:53:56.916Z,2.00
2019-02-27T04:56:24.026Z,2.13
2019-02-27T04:58:51.055Z,2.73
2019-02-27T05:01:17.924Z,2.80
2019-02-27T05:03:44.812Z,2.57
2019-02-27T05:06:14.245Z,2.70
2019-02-27T05:08:40.884Z,2.40
2019-02-27T05:11:07.831Z,2.87
2019-02-27T05:13:35.768Z,1.90
2019-02-27T05:16:03.176Z,2.50
2019-02-27T05:18:30.407Z,1.93
2019-02-27T05:20:57.883Z,2.37
2019-02-27T05:23:26.097Z,2.03
2019-02-27T05:25:53.611Z,2.50
2019-02-27T05:28:20.700Z,2.40
2019-02-27T05:30:48.440Z,2.23
2019-02-27T05:33:15.763Z,2.27
2019-02-27T05:35:42.659Z,2.80
2019-02-27T05:38:10.229Z,2.77
2019-02-27T05:40:37.517Z,3.40
2019-02-27T05:43:04.959Z,3.57
2019-02-27T05:45:32.248Z,3.73
2019-02-27T05:47:59.098Z,3.53
2019-02-27T05:50:27.506Z,2.97
2019-02-27T05:52:54.959Z,3.50
2019-02-27T05:55:22.228Z,4.33
2019-02-27T05:57:49.329Z,6.13
2019-02-27T06:00:17.539Z,6.87
2019-02-27T06:02:45.684Z,6.57
2019-02-27T06:05:13.535Z,6.30
2019-02-27T06:07:40.668Z,5.00
2019-02-27T06:10:09.670Z,4.27
2019-02-27T06:12:38.101Z,3.90
2019-02-27T06:15:08.923Z,3.50
2019-02-27T06:17:43.104Z,5.17
2019-02-27T06:20:07.650Z,5.30
2019-02-27T06:22:34.467Z,5.27
2019-02-27T06:25:01.602Z,5.03
2019-02-27T06:27:31.646Z,4.77
2019-02-27T06:29:59.841Z,4.70
2019-02-27T06:32:28.157Z,4.80
2019-02-27T06:34:59.090Z,4.03
2019-02-27T06:37:24.419Z,3.70
2019-02-27T06:39:51.849Z,4.30
2019-02-27T06:42:19.338Z,4.70
2019-02-27T06:44:47.300Z,4.23
2019-02-27T06:47:14.840Z,4.97
2019-02-27T06:49:41.793Z,4.53
2019-02-27T06:52:09.829Z,6.63
2019-02-27T06:54:37.850Z,9.77
2019-02-27T06:57:07.540Z,8.30
2019-02-27T06:59:34.523Z,9.60
2019-02-27T07:02:01.972Z,9.23
2019-02-27T07:04:29.160Z,8.70
2019-02-27T07:06:57.156Z,9.93
2019-02-27T07:09:24.719Z,7.50
2019-02-27T07:11:52.040Z,6.13
2019-02-27T07:14:19.695Z,6.60
2019-02-27T07:16:46.840Z,7.10
2019-02-27T07:19:15.834Z,6.43
2019-02-27T07:21:43.499Z,6.80
2019-02-27T07:24:11.263Z,5.70
2019-02-27T07:26:38.607Z,5.60
2019-02-27T07:29:05.799Z,6.20
2019-02-27T07:31:33.574Z,6.30
2019-02-27T07:34:00.836Z,7.20
2019-02-27T07:36:27.936Z,7.10
2019-02-27T07:38:57.640Z,5.73
2019-02-27T07:41:25.251Z,6.40
2019-02-27T07:43:52.660Z,5.40
2019-02-27T07:46:22.359Z,4.80
2019-02-27T07:48:48.900Z,5.40
2019-02-27T07:51:16.099Z,5.00
2019-02-27T07:53:44.276Z,5.00
2019-02-27T07:56:11.137Z,5.30
2019-02-27T07:58:39.596Z,4.17
2019-02-27T08:01:06.907Z,4.97
2019-02-27T08:03:33.743Z,4.60
2019-02-27T08:06:02.491Z,5.47
2019-02-27T08:08:30.974Z,5.00
2019-02-27T08:10:59.764Z,5.30
2019-02-27T08:13:27.081Z,5.87
2019-02-27T08:15:56.384Z,5.40
2019-02-27T08:18:30.092Z,4.77
2019-02-27T08:20:55.265Z,5.40
2019-02-27T08:23:23.786Z,5.30
2019-02-27T08:25:51.943Z,5.67
2019-02-27T08:28:19.832Z,5.63
2019-02-27T08:30:46.893Z,4.13
2019-02-27T08:33:15.270Z,5.33
2019-02-27T08:35:42.300Z,4.53
2019-02-27T08:38:10.719Z,5.30
2019-02-27T08:40:38.472Z,5.03
2019-02-27T08:43:10.289Z,5.13
2019-02-27T08:45:40.046Z,6.10
2019-02-27T08:48:08.344Z,5.90
2019-02-27T08:50:35.377Z,6.50
2019-02-27T08:53:02.512Z,5.37
2019-02-27T08:55:29.794Z,6.67
2019-02-27T08:57:57.743Z,5.50
2019-02-27T09:00:25.330Z,5.67
2019-02-27T09:02:52.415Z,5.40
2019-02-27T09:05:20.981Z,5.60
2019-02-27T09:07:48.159Z,5.77
2019-02-27T09:10:15.795Z,6.17
2019-02-27T09:12:45.355Z,5.40
2019-02-27T09:15:13.846Z,5.67
2019-02-27T09:17:41.639Z,6.87
2019-02-27T09:20:12.666Z,6.10
2019-02-27T09:22:39.785Z,6.17
2019-02-27T09:25:07.243Z,6.07
2019-02-27T09:27:35.306Z,6.07
2019-02-27T09:30:03.712Z,7.87
2019-02-27T09:32:30.728Z,6.07
2019-02-27T09:34:59.631Z,5.70
2019-02-27T09:37:27.304Z,7.70
2019-02-27T09:39:55.080Z,7.20
2019-02-27T09:42:22.087Z,6.10
2019-02-27T09:44:49.218Z,6.20
2019-02-27T09:47:16.506Z,6.57
2019-02-27T09:49:43.495Z,6.37
2019-02-27T09:52:11.269Z,6.27
2019-02-27T09:54:40.288Z,5.80
2019-02-27T09:57:08.432Z,5.83
2019-02-27T09:59:36.207Z,7.20
2019-02-27T10:02:06.250Z,5.90
2019-02-27T10:04:33.091Z,5.97
2019-02-27T10:07:01.091Z,5.83
2019-02-27T10:09:28.323Z,5.60
2019-02-27T10:11:57.319Z,6.23
2019-02-27T10:14:24.604Z,5.70
2019-02-27T10:16:51.884Z,5.30
2019-02-27T10:19:18.875Z,5.97
2019-02-27T10:21:47.534Z,5.53
2019-02-27T10:24:14.555Z,5.50
2019-02-27T10:26:41.984Z,5.33
2019-02-27T10:29:10.970Z,5.60
2019-02-27T10:31:39.245Z,7.10
2019-02-27T10:34:06.847Z,5.50
2019-02-27T10:36:37.997Z,8.90
2019-02-27T10:39:05.517Z,15.97
2019-02-27T10:41:32.683Z,6.77
2019-02-27T10:43:59.695Z,5.33
2019-02-27T10:46:26.920Z,5.60
2019-02-27T10:48:54.356Z,6.27
2019-02-27T10:51:23.002Z,5.37
2019-02-27T10:53:50.434Z,6.13
2019-02-27T10:56:18.928Z,5.03
2019-02-27T10:58:47.632Z,6.53
2019-02-27T11:01:14.951Z,6.10
2019-02-27T11:03:42.023Z,6.30
2019-02-27T11:06:09.391Z,5.50
2019-02-27T11:08:37.442Z,6.00
2019-02-27T11:11:04.667Z,14.20
2019-02-27T11:13:33.064Z,21.10
2019-02-27T11:16:01.850Z,8.73
2019-02-27T11:18:30.660Z,5.63
2019-02-27T11:20:59.158Z,7.03
2019-02-27T11:23:26.808Z,6.00
2019-02-27T11:25:56.936Z,5.33
2019-02-27T11:28:25.004Z,8.00
2019-02-27T11:30:52.612Z,5.30
2019-02-27T11:33:25.706Z,5.87
2019-02-27T11:35:48.611Z,6.37
2019-02-27T11:38:16.237Z,6.40
2019-02-27T11:40:43.310Z,6.07
2019-02-27T11:43:11.444Z,5.73
2019-02-27T11:45:40.340Z,6.03
2019-02-27T11:48:07.660Z,6.30
2019-02-27T11:50:34.783Z,6.67
2019-02-27T11:53:02.915Z,6.47
2019-02-27T11:55:30.483Z,6.63
2019-02-27T11:57:57.837Z,6.60
2019-02-27T12:00:28.791Z,6.03
2019-02-27T12:02:56.309Z,6.30
2019-02-27T12:05:23.885Z,5.80
2019-02-27T12:07:51.834Z,6.37
2019-02-27T12:10:21.482Z,6.00
2019-02-27T12:12:48.668Z,7.43
2019-02-27T12:15:17.012Z,7.20
2019-02-27T12:17:44.116Z,7.40
2019-02-27T12:20:11.547Z,6.67
2019-02-27T12:22:39.080Z,6.53
2019-02-27T12:25:07.255Z,6.00
2019-02-27T12:27:48.760Z,7.03
2019-02-27T12:30:08.228Z,6.77
2019-02-27T12:32:35.299Z,20.80
2019-02-27T12:35:03.912Z,28.40
2019-02-27T12:37:34.784Z,10.97
2019-02-27T12:40:02.096Z,7.40
2019-02-27T12:42:37.071Z,7.50
2019-02-27T12:45:00.024Z,6.90
2019-02-27T12:47:27.948Z,7.00
2019-02-27T12:49:54.976Z,6.97
2019-02-27T12:52:23.197Z,6.90
2019-02-27T12:54:50.487Z,7.20
2019-02-27T12:57:18.190Z,6.87
2019-02-27T12:59:45.644Z,7.33
2019-02-27T13:02:13.433Z,7.77
2019-02-27T13:04:41.445Z,7.67
2019-02-27T13:07:10.732Z,8.27
2019-02-27T13:09:38.131Z,7.77
2019-02-27T13:12:07.075Z,7.90
2019-02-27T13:14:34.232Z,8.47
2019-02-27T13:17:01.488Z,7.77
2019-02-27T13:19:29.512Z,8.27
2019-02-27T13:21:57.013Z,9.13
2019-02-27T13:24:24.938Z,7.73
2019-02-27T13:26:52.381Z,8.70
2019-02-27T13:29:20.562Z,8.13
2019-02-27T13:31:51.443Z,7.30
2019-02-27T13:34:17.962Z,6.90
2019-02-27T13:36:45.228Z,8.17
2019-02-27T13:39:13.453Z,6.43
2019-02-27T13:41:42.466Z,8.30
2019-02-27T13:44:10.585Z,8.13
2019-02-27T13:46:37.584Z,7.83
2019-02-27T13:49:04.567Z,7.67
2019-02-27T13:51:33.884Z,8.90
2019-02-27T13:54:01.473Z,7.33
2019-02-27T13:56:28.848Z,7.83
2019-02-27T13:58:55.903Z,6.77
2019-02-27T14:01:25.155Z,7.17
2019-02-27T14:03:53.068Z,7.73
2019-02-27T14:06:20.099Z,6.90
2019-02-27T14:08:47.843Z,7.40
2019-02-27T14:11:15.467Z,6.60
2019-02-27T14:13:43.989Z,7.50
2019-02-27T14:16:12.580Z,6.40
2019-02-27T14:18:39.735Z,5.50
2019-02-27T14:21:07.120Z,5.73
2019-02-27T14:23:35.992Z,6.07
2019-02-27T14:26:06.365Z,7.57
2019-02-27T14:28:33.914Z,8.30
2019-02-27T14:31:01.223Z,13.57
2019-02-27T14:33:28.456Z,8.00
2019-02-27T14:35:56.035Z,6.43
2019-02-27T14:38:23.705Z,7.53
2019-02-27T14:40:50.983Z,6.50
2019-02-27T14:43:19.939Z,6.27
2019-02-27T14:45:47.086Z,6.33
2019-02-27T14:48:14.923Z,6.30
2019-02-27T14:50:42.165Z,6.03
2019-02-27T14:53:09.413Z,5.23
2019-02-27T14:55:37.433Z,7.10
2019-02-27T14:58:04.755Z,5.20
2019-02-27T15:00:32.074Z,5.77
2019-02-27T15:02:59.347Z,5.37
2019-02-27T15:05:26.682Z,6.80
2019-02-27T15:07:54.813Z,5.97
2019-02-27T15:10:23.818Z,5.00
2019-02-27T15:12:55.054Z,5.77
2019-02-27T15:15:22.532Z,4.43
2019-02-27T15:17:51.224Z,4.43
2019-02-27T15:20:21.247Z,4.63
2019-02-27T15:22:48.927Z,4.60
2019-02-27T15:25:17.295Z,3.97
2019-02-27T15:27:45.815Z,3.13
2019-02-27T15:30:16.171Z,4.13
2019-02-27T15:32:44.535Z,4.00
2019-02-27T15:35:12.139Z,4.70
2019-02-27T15:37:39.359Z,4.20
2019-02-27T15:40:07.520Z,4.20
2019-02-27T15:42:35.684Z,3.63
2019-02-27T15:45:09.067Z,6.20
2019-02-27T15:47:33.928Z,10.03
2019-02-27T15:50:02.653Z,5.30
2019-02-27T15:52:29.928Z,3.33
2019-02-27T15:54:59.287Z,4.40
2019-02-27T15:57:26.598Z,4.10
2019-02-27T15:59:54.399Z,4.17
2019-02-27T16:02:23.284Z,4.17
2019-02-27T16:04:52.238Z,4.27
2019-02-27T16:07:19.851Z,4.03
2019-02-27T16:09:47.314Z,3.80
2019-02-27T16:12:14.897Z,3.80
2019-02-27T16:14:42.839Z,3.70
2019-02-27T16:17:11.036Z,3.17
2019-02-27T16:19:39.047Z,3.20
2019-02-27T16:22:06.149Z,2.90
2019-02-27T16:24:33.519Z,3.37
2019-02-27T16:27:01.320Z,2.93
2019-02-27T16:29:29.184Z,3.60
2019-02-27T16:31:56.384Z,3.13
2019-02-27T16:34:23.999Z,3.40
2019-02-27T16:36:51.137Z,3.50
2019-02-27T16:39:18.576Z,3.00
2019-02-27T16:41:45.557Z,3.33
2019-02-27T16:44:12.588Z,3.47
2019-02-27T16:46:43.252Z,3.70
2019-02-27T16:49:10.264Z,3.20
2019-02-27T16:51:37.164Z,3.40
2019-02-27T16:54:06.351Z,3.13
2019-02-27T16:56:33.343Z,3.30
2019-02-27T16:59:07.662Z,14.83
2019-02-27T17:01:30.979Z,5.33
2019-02-27T17:04:00.446Z,3.00
2019-02-27T17:06:27.687Z,2.40
2019-02-27T17:08:54.871Z,2.07
2019-02-27T17:11:22.331Z,2.70
2019-02-27T17:13:50.330Z,2.47
2019-02-27T17:16:17.795Z,2.17
2019-02-27T17:18:44.995Z,2.63
2019-02-27T17:21:11.989Z,2.00
2019-02-27T17:23:43.778Z,2.60
2019-02-27T17:26:10.231Z,2.20
2019-02-27T17:28:37.323Z,2.00
2019-02-27T17:31:05.071Z,2.40
2019-02-27T17:33:35.122Z,2.20
2019-02-27T17:36:01.668Z,2.30
2019-02-27T17:38:29.691Z,2.70
2019-02-27T17:40:56.936Z,2.73
2019-02-27T17:43:28.585Z,2.60
2019-02-27T17:45:54.997Z,2.50
2019-02-27T17:48:21.872Z,2.37
2019-02-27T17:50:50.277Z,2.43
2019-02-27T17:53:17.172Z,2.33
2019-02-27T17:55:44.543Z,2.50
2019-02-27T17:58:12.303Z,3.43
2019-02-27T18:00:40.885Z,2.60
2019-02-27T18:03:09.516Z,3.37
2019-02-27T18:05:38.775Z,2.57
2019-02-27T18:08:06.280Z,2.30
2019-02-27T18:10:37.165Z,2.87
2019-02-27T18:13:03.603Z,2.90
2019-02-27T18:15:31.174Z,4.50
2019-02-27T18:17:58.448Z,5.87
2019-02-27T18:20:26.119Z,15.40
2019-02-27T18:22:53.336Z,4.20
2019-02-27T18:25:22.655Z,3.10
2019-02-27T18:27:50.085Z,2.70
2019-02-27T18:30:19.564Z,3.03
2019-02-27T18:32:47.288Z,3.57
2019-02-27T18:35:16.304Z,2.83
2019-02-27T18:37:45.326Z,4.47
2019-02-27T18:40:12.929Z,4.80
2019-02-27T18:42:40.319Z,4.70
2019-02-27T18:45:09.187Z,4.00
2019-02-27T18:47:37.621Z,5.27
2019-02-27T18:50:05.204Z,6.57
2019-02-27T18:52:33.187Z,5.40
2019-02-27T18:55:00.407Z,4.77
2019-02-27T18:57:27.856Z,4.80
2019-02-27T18:59:55.104Z,5.30
2019-02-27T19:02:23.433Z,4.57
2019-02-27T19:04:50.743Z,4.17
2019-02-27T19:07:20.226Z,3.47
2019-02-27T19:09:48.304Z,4.50
2019-02-27T19:12:15.459Z,3.23
2019-02-27T19:14:43.268Z,4.63
2019-02-27T19:17:11.401Z,7.00
2019-02-27T19:19:38.819Z,7.63
2019-02-27T19:22:07.925Z,6.60
2019-02-27T19:24:36.948Z,5.83
2019-02-27T19:27:04.276Z,3.53
2019-02-27T19:29:31.909Z,2.90
2019-02-27T19:31:59.865Z,3.60
2019-02-27T19:34:27.151Z,3.50
2019-02-27T19:36:54.208Z,3.77
2019-02-27T19:39:22.603Z,2.87
2019-02-27T19:41:50.053Z,2.87
2019-02-27T19:44:17.155Z,2.83
2019-02-27T19:46:47.449Z,2.23
2019-02-27T19:49:13.957Z,2.57
2019-02-27T19:51:41.031Z,2.83
2019-02-27T19:54:08.159Z,2.23
2019-02-27T19:56:36.560Z,2.20
2019-02-27T19:59:04.039Z,2.20
2019-02-27T20:01:31.624Z,1.97
2019-02-27T20:03:58.900Z,2.37
2019-02-27T20:06:27.952Z,2.37
2019-02-27T20:08:55.243Z,2.70
2019-02-27T20:11:22.353Z,3.10
2019-02-27T20:13:49.640Z,3.57
2019-02-27T20:16:17.763Z,3.23
2019-02-27T20:18:54.527Z,3.20
2019-02-27T20:21:18.748Z,2.73
2019-02-27T20:23:46.985Z,2.20
2019-02-27T20:26:14.458Z,2.30
2019-02-27T20:28:43.111Z,1.70
2019-02-27T20:31:10.722Z,1.70
2019-02-27T20:33:38.042Z,1.90
2019-02-27T20:36:05.956Z,1.27
2019-02-27T20:38:34.071Z,1.60
2019-02-27T20:41:01.550Z,1.73
2019-02-27T20:43:29.451Z,3.27
2019-02-27T20:45:58.345Z,3.60
2019-02-27T20:48:25.849Z,5.97
2019-02-27T20:50:55.306Z,14.03
2019-02-27T20:53:22.779Z,4.40
2019-02-27T20:55:49.938Z,2.10
2019-02-27T20:58:17.588Z,1.60
2019-02-27T21:00:45.307Z,1.50
2019-02-27T21:03:12.392Z,1.10
2019-02-27T21:05:40.983Z,1.13
2019-02-27T21:08:10.608Z,0.87
2019-02-27T21:10:37.731Z,0.80
2019-02-27T21:13:05.111Z,1.10
2019-02-27T21:15:33.441Z,1.07
2019-02-27T21:18:02.451Z,0.97
2019-02-27T21:20:29.807Z,1.20
2019-02-27T21:22:59.808Z,0.93
2019-02-27T21:25:27.072Z,0.83
2019-02-27T21:27:54.616Z,0.90
2019-02-27T21:30:22.039Z,0.80
2019-02-27T21:32:49.613Z,1.17
2019-02-27T21:35:17.839Z,1.07
2019-02-27T21:37:46.160Z,1.23
2019-02-27T21:40:13.943Z,1.40
2019-02-27T21:42:41.172Z,1.20
2019-02-27T21:45:10.683Z,1.50
2019-02-27T21:47:38.077Z,1.13
2019-02-27T21:50:07.142Z,1.30
2019-02-27T21:52:35.078Z,1.03
2019-02-27T21:55:02.613Z,1.27
2019-02-27T21:57:29.867Z,8.80
2019-02-27T21:59:57.767Z,9.00
2019-02-27T22:02:27.209Z,2.40
2019-02-27T22:04:55.868Z,1.70
2019-02-27T22:07:23.223Z,2.10
2019-02-27T22:09:50.795Z,1.40
2019-02-27T22:12:19.072Z,1.73
2019-02-27T22:14:48.545Z,1.30
2019-02-27T22:17:18.007Z,1.50
2019-02-27T22:19:45.204Z,1.13
2019-02-27T22:22:12.171Z,1.00
2019-02-27T22:24:39.584Z,1.00
2019-02-27T22:27:09.194Z,1.17
2019-02-27T22:29:35.910Z,0.77
2019-02-27T22:32:04.095Z,1.20
2019-02-27T22:34:31.508Z,0.90
2019-02-27T22:36:59.812Z,1.20
2019-02-27T22:39:26.999Z,1.00
2019-02-27T22:41:54.201Z,1.13
2019-02-27T22:44:21.212Z,1.00
2019-02-27T22:46:48.867Z,0.93
2019-02-27T22:49:17.802Z,1.00
2019-02-27T22:51:48.130Z,1.13
2019-02-27T22:54:13.751Z,1.20
2019-02-27T22:56:40.732Z,1.17
2019-02-27T22:59:07.751Z,1.10
2019-02-27T23:01:49.415Z,0.90
2019-02-27T23:04:13.841Z,1.30
2019-02-27T23:06:43.760Z,1.50
2019-02-27T23:09:13.855Z,1.20
2019-02-27T23:11:41.332Z,1.23
2019-02-27T23:14:09.311Z,1.03
2019-02-27T23:16:36.424Z,0.90
2019-02-27T23:19:04.716Z,1.20
2019-02-27T23:21:33.043Z,0.97
2019-02-27T23:24:00.357Z,1.10
2019-02-27T23:26:28.848Z,1.30
2019-02-27T23:28:57.059Z,1.17
2019-02-27T23:31:24.171Z,1.70
2019-02-27T23:33:51.733Z,1.40
2019-02-27T23:36:22.073Z,1.07
2019-02-27T23:38:50.631Z,1.57
2019-02-27T23:41:22.907Z,1.20
2019-02-27T23:43:48.523Z,1.40
2019-02-27T23:46:18.331Z,1.57
2019-02-27T23:48:45.504Z,1.40
2019-02-27T23:51:16.759Z,1.20
2019-02-27T23:53:43.805Z,1.30
2019-02-27T23:56:12.728Z,1.37
2019-02-27T23:58:40.768Z,1.57
